sensor_id;sensor_type;location;lat;lon;timestamp;temperature;humidity
37594;DHT22;23441;50.856;6.076;2022-08-24T00:01:14;19.50;99.90
37594;DHT22;23441;50.856;6.076;2022-08-24T00:03:42;19.40;99.90
37594;DHT22;23441;50.856;6.076;2022-08-24T00:06:12;19.20;99.90
37594;DHT22;23441;50.856;6.076;2022-08-24T00:08:41;19.20;99.90
37594;DHT22;23441;50.856;6.076;2022-08-24T00:11:07;19.10;99.90
37594;DHT22;23441;50.856;6.076;2022-08-24T00:13:34;19.10;99.90
37594;DHT22;23441;50.856;6.076;2022-08-24T00:16:01;19.10;99.90
37594;DHT22;23441;50.856;6.076;2022-08-24T00:18:27;19.10;99.90
37594;DHT22;23441;50.856;6.076;2022-08-24T00:20:53;19.20;99.90
37594;DHT22;23441;50.856;6.076;2022-08-24T00:23:19;19.10;99.90
37594;DHT22;23441;50.856;6.076;2022-08-24T00:25:46;19.00;99.90
37594;DHT22;23441;50.856;6.076;2022-08-24T00:28:11;19.00;99.90
37594;DHT22;23441;50.856;6.076;2022-08-24T00:30:38;18.80;99.90
37594;DHT22;23441;50.856;6.076;2022-08-24T00:33:04;18.90;99.90
37594;DHT22;23441;50.856;6.076;2022-08-24T00:35:30;18.90;99.90
37594;DHT22;23441;50.856;6.076;2022-08-24T00:37:56;18.90;99.90
37594;DHT22;23441;50.856;6.076;2022-08-24T00:40:29;18.90;99.90
37594;DHT22;23441;50.856;6.076;2022-08-24T00:43:01;18.80;99.90
37594;DHT22;23441;50.856;6.076;2022-08-24T00:45:30;18.80;99.90
37594;DHT22;23441;50.856;6.076;2022-08-24T00:48:04;18.70;99.90
37594;DHT22;23441;50.856;6.076;2022-08-24T00:53:21;18.60;99.90
37594;DHT22;23441;50.856;6.076;2022-08-24T00:55:58;18.60;99.90
37594;DHT22;23441;50.856;6.076;2022-08-24T00:58:57;18.50;99.90
37594;DHT22;23441;50.856;6.076;2022-08-24T01:01:22;18.50;99.90
37594;DHT22;23441;50.856;6.076;2022-08-24T01:03:48;18.50;99.90
37594;DHT22;23441;50.856;6.076;2022-08-24T01:06:14;18.50;99.90
37594;DHT22;23441;50.856;6.076;2022-08-24T01:08:40;18.50;99.90
37594;DHT22;23441;50.856;6.076;2022-08-24T01:11:13;18.60;99.90
37594;DHT22;23441;50.856;6.076;2022-08-24T01:13:43;18.60;99.90
37594;DHT22;23441;50.856;6.076;2022-08-24T01:16:12;18.60;99.90
37594;DHT22;23441;50.856;6.076;2022-08-24T01:18:39;18.60;99.90
37594;DHT22;23441;50.856;6.076;2022-08-24T01:21:21;18.50;99.90
37594;DHT22;23441;50.856;6.076;2022-08-24T01:23:56;18.40;99.90
37594;DHT22;23441;50.856;6.076;2022-08-24T01:29:18;18.10;99.90
37594;DHT22;23441;50.856;6.076;2022-08-24T01:31:45;18.10;99.90
37594;DHT22;23441;50.856;6.076;2022-08-24T01:34:11;18.00;99.90
37594;DHT22;23441;50.856;6.076;2022-08-24T01:36:52;18.00;99.90
37594;DHT22;23441;50.856;6.076;2022-08-24T01:39:33;17.90;99.90
37594;DHT22;23441;50.856;6.076;2022-08-24T01:42:01;17.90;99.90
37594;DHT22;23441;50.856;6.076;2022-08-24T01:44:31;17.80;99.90
37594;DHT22;23441;50.856;6.076;2022-08-24T01:47:03;17.80;99.90
37594;DHT22;23441;50.856;6.076;2022-08-24T01:49:35;17.80;99.90
37594;DHT22;23441;50.856;6.076;2022-08-24T01:52:03;17.80;99.90
37594;DHT22;23441;50.856;6.076;2022-08-24T01:54:31;17.80;99.90
37594;DHT22;23441;50.856;6.076;2022-08-24T01:56:59;17.80;99.90
37594;DHT22;23441;50.856;6.076;2022-08-24T01:59:26;17.80;99.90
37594;DHT22;23441;50.856;6.076;2022-08-24T02:02:00;17.80;99.90
37594;DHT22;23441;50.856;6.076;2022-08-24T02:04:29;17.70;99.90
37594;DHT22;23441;50.856;6.076;2022-08-24T02:06:58;17.70;99.90
37594;DHT22;23441;50.856;6.076;2022-08-24T02:09:25;17.70;99.90
37594;DHT22;23441;50.856;6.076;2022-08-24T02:11:51;17.70;99.90
37594;DHT22;23441;50.856;6.076;2022-08-24T02:14:17;17.70;99.90
37594;DHT22;23441;50.856;6.076;2022-08-24T02:16:44;17.80;99.90
37594;DHT22;23441;50.856;6.076;2022-08-24T02:19:12;18.00;99.90
37594;DHT22;23441;50.856;6.076;2022-08-24T02:21:38;18.00;99.90
37594;DHT22;23441;50.856;6.076;2022-08-24T02:24:04;17.90;99.90
37594;DHT22;23441;50.856;6.076;2022-08-24T02:26:31;17.80;99.90
37594;DHT22;23441;50.856;6.076;2022-08-24T02:28:57;17.80;99.90
37594;DHT22;23441;50.856;6.076;2022-08-24T02:31:23;17.80;99.90
37594;DHT22;23441;50.856;6.076;2022-08-24T02:33:48;17.80;99.90
37594;DHT22;23441;50.856;6.076;2022-08-24T02:36:14;17.70;99.90
37594;DHT22;23441;50.856;6.076;2022-08-24T02:38:40;17.70;99.90
37594;DHT22;23441;50.856;6.076;2022-08-24T02:41:08;17.60;99.90
37594;DHT22;23441;50.856;6.076;2022-08-24T02:43:35;17.60;99.90
37594;DHT22;23441;50.856;6.076;2022-08-24T02:46:01;17.60;99.90
37594;DHT22;23441;50.856;6.076;2022-08-24T02:48:28;17.60;99.90
37594;DHT22;23441;50.856;6.076;2022-08-24T02:50:54;17.50;99.90
37594;DHT22;23441;50.856;6.076;2022-08-24T02:53:21;17.50;99.90
37594;DHT22;23441;50.856;6.076;2022-08-24T02:55:48;17.50;99.90
37594;DHT22;23441;50.856;6.076;2022-08-24T02:58:15;17.50;99.90
37594;DHT22;23441;50.856;6.076;2022-08-24T03:00:43;17.50;99.90
37594;DHT22;23441;50.856;6.076;2022-08-24T03:03:11;17.40;99.90
37594;DHT22;23441;50.856;6.076;2022-08-24T03:05:37;17.40;99.90
37594;DHT22;23441;50.856;6.076;2022-08-24T03:08:04;17.40;99.90
37594;DHT22;23441;50.856;6.076;2022-08-24T03:10:31;17.30;99.90
37594;DHT22;23441;50.856;6.076;2022-08-24T03:12:57;17.30;99.90
37594;DHT22;23441;50.856;6.076;2022-08-24T03:15:25;17.30;99.90
37594;DHT22;23441;50.856;6.076;2022-08-24T03:17:51;17.20;99.90
37594;DHT22;23441;50.856;6.076;2022-08-24T03:20:20;17.20;99.90
37594;DHT22;23441;50.856;6.076;2022-08-24T03:22:47;17.10;99.90
37594;DHT22;23441;50.856;6.076;2022-08-24T03:25:15;17.10;99.90
37594;DHT22;23441;50.856;6.076;2022-08-24T03:27:41;17.10;99.90
37594;DHT22;23441;50.856;6.076;2022-08-24T03:30:10;17.10;99.90
37594;DHT22;23441;50.856;6.076;2022-08-24T03:32:38;17.10;99.90
37594;DHT22;23441;50.856;6.076;2022-08-24T03:35:05;17.20;99.90
37594;DHT22;23441;50.856;6.076;2022-08-24T03:37:32;17.30;99.90
37594;DHT22;23441;50.856;6.076;2022-08-24T03:39:58;17.40;99.90
37594;DHT22;23441;50.856;6.076;2022-08-24T03:42:25;17.30;99.90
37594;DHT22;23441;50.856;6.076;2022-08-24T03:44:51;17.20;99.90
37594;DHT22;23441;50.856;6.076;2022-08-24T03:47:17;17.10;99.90
37594;DHT22;23441;50.856;6.076;2022-08-24T03:49:44;17.10;99.90
37594;DHT22;23441;50.856;6.076;2022-08-24T03:52:10;17.10;99.90
37594;DHT22;23441;50.856;6.076;2022-08-24T03:54:36;17.10;99.90
37594;DHT22;23441;50.856;6.076;2022-08-24T03:57:02;17.00;99.90
37594;DHT22;23441;50.856;6.076;2022-08-24T03:59:28;17.00;99.90
37594;DHT22;23441;50.856;6.076;2022-08-24T04:01:54;17.00;99.90
37594;DHT22;23441;50.856;6.076;2022-08-24T04:04:21;16.90;99.90
37594;DHT22;23441;50.856;6.076;2022-08-24T04:06:47;16.80;99.90
37594;DHT22;23441;50.856;6.076;2022-08-24T04:09:15;16.80;99.90
37594;DHT22;23441;50.856;6.076;2022-08-24T04:11:41;16.90;99.90
37594;DHT22;23441;50.856;6.076;2022-08-24T04:14:10;16.80;99.90
37594;DHT22;23441;50.856;6.076;2022-08-24T04:16:36;16.80;99.90
37594;DHT22;23441;50.856;6.076;2022-08-24T04:19:03;16.80;99.90
37594;DHT22;23441;50.856;6.076;2022-08-24T04:21:32;16.70;99.90
37594;DHT22;23441;50.856;6.076;2022-08-24T04:24:00;16.80;99.90
37594;DHT22;23441;50.856;6.076;2022-08-24T04:26:29;16.80;99.90
37594;DHT22;23441;50.856;6.076;2022-08-24T04:28:56;16.80;99.90
37594;DHT22;23441;50.856;6.076;2022-08-24T04:31:23;16.80;99.90
37594;DHT22;23441;50.856;6.076;2022-08-24T04:33:50;16.80;99.90
37594;DHT22;23441;50.856;6.076;2022-08-24T04:36:19;16.80;99.90
37594;DHT22;23441;50.856;6.076;2022-08-24T04:38:46;16.80;99.90
37594;DHT22;23441;50.856;6.076;2022-08-24T04:41:14;16.70;99.90
37594;DHT22;23441;50.856;6.076;2022-08-24T04:43:41;16.70;99.90
37594;DHT22;23441;50.856;6.076;2022-08-24T04:46:12;16.60;99.90
37594;DHT22;23441;50.856;6.076;2022-08-24T04:48:44;16.60;99.90
37594;DHT22;23441;50.856;6.076;2022-08-24T04:51:14;16.60;99.90
37594;DHT22;23441;50.856;6.076;2022-08-24T04:53:43;16.60;99.90
37594;DHT22;23441;50.856;6.076;2022-08-24T04:56:16;16.70;99.90
37594;DHT22;23441;50.856;6.076;2022-08-24T04:58:44;16.70;99.90
37594;DHT22;23441;50.856;6.076;2022-08-24T05:01:16;16.70;99.90
37594;DHT22;23441;50.856;6.076;2022-08-24T05:03:46;16.70;99.90
37594;DHT22;23441;50.856;6.076;2022-08-24T05:06:14;16.80;99.90
37594;DHT22;23441;50.856;6.076;2022-08-24T05:08:41;16.90;99.90
37594;DHT22;23441;50.856;6.076;2022-08-24T05:11:08;17.00;99.90
37594;DHT22;23441;50.856;6.076;2022-08-24T05:13:35;17.10;99.90
37594;DHT22;23441;50.856;6.076;2022-08-24T05:16:06;17.20;99.90
37594;DHT22;23441;50.856;6.076;2022-08-24T05:18:34;17.20;99.90
37594;DHT22;23441;50.856;6.076;2022-08-24T05:21:00;17.30;99.90
37594;DHT22;23441;50.856;6.076;2022-08-24T05:23:26;17.30;99.90
37594;DHT22;23441;50.856;6.076;2022-08-24T05:25:52;17.30;99.90
37594;DHT22;23441;50.856;6.076;2022-08-24T05:28:18;17.40;99.90
37594;DHT22;23441;50.856;6.076;2022-08-24T05:30:45;17.40;99.90
37594;DHT22;23441;50.856;6.076;2022-08-24T05:33:11;17.50;99.90
37594;DHT22;23441;50.856;6.076;2022-08-24T05:35:38;17.60;99.90
37594;DHT22;23441;50.856;6.076;2022-08-24T05:38:05;17.50;99.90
37594;DHT22;23441;50.856;6.076;2022-08-24T05:40:31;17.60;99.90
37594;DHT22;23441;50.856;6.076;2022-08-24T05:42:57;17.60;99.90
37594;DHT22;23441;50.856;6.076;2022-08-24T05:45:23;17.80;99.90
37594;DHT22;23441;50.856;6.076;2022-08-24T05:47:49;17.90;99.90
37594;DHT22;23441;50.856;6.076;2022-08-24T05:50:15;18.10;99.90
37594;DHT22;23441;50.856;6.076;2022-08-24T05:52:41;18.30;99.90
37594;DHT22;23441;50.856;6.076;2022-08-24T05:55:08;18.40;99.90
37594;DHT22;23441;50.856;6.076;2022-08-24T05:57:35;18.60;99.90
37594;DHT22;23441;50.856;6.076;2022-08-24T06:00:04;18.60;99.90
37594;DHT22;23441;50.856;6.076;2022-08-24T06:02:33;18.50;99.90
37594;DHT22;23441;50.856;6.076;2022-08-24T06:04:59;18.50;99.90
37594;DHT22;23441;50.856;6.076;2022-08-24T06:07:25;18.50;99.90
37594;DHT22;23441;50.856;6.076;2022-08-24T06:09:51;18.50;99.90
37594;DHT22;23441;50.856;6.076;2022-08-24T06:12:18;18.60;99.90
37594;DHT22;23441;50.856;6.076;2022-08-24T06:14:45;18.70;99.90
37594;DHT22;23441;50.856;6.076;2022-08-24T06:17:12;18.70;99.90
37594;DHT22;23441;50.856;6.076;2022-08-24T06:19:38;18.80;99.90
37594;DHT22;23441;50.856;6.076;2022-08-24T06:22:06;19.00;99.90
37594;DHT22;23441;50.856;6.076;2022-08-24T06:24:34;19.10;99.90
37594;DHT22;23441;50.856;6.076;2022-08-24T06:27:21;19.10;99.90
37594;DHT22;23441;50.856;6.076;2022-08-24T06:29:53;19.20;99.90
37594;DHT22;23441;50.856;6.076;2022-08-24T06:32:20;19.30;99.90
37594;DHT22;23441;50.856;6.076;2022-08-24T06:34:47;19.50;99.90
37594;DHT22;23441;50.856;6.076;2022-08-24T06:37:13;19.70;99.90
37594;DHT22;23441;50.856;6.076;2022-08-24T06:39:39;19.90;99.90
37594;DHT22;23441;50.856;6.076;2022-08-24T06:42:05;20.30;99.90
37594;DHT22;23441;50.856;6.076;2022-08-24T06:44:31;21.20;99.90
37594;DHT22;23441;50.856;6.076;2022-08-24T06:46:57;22.30;99.90
37594;DHT22;23441;50.856;6.076;2022-08-24T06:49:24;23.00;99.90
37594;DHT22;23441;50.856;6.076;2022-08-24T06:51:50;23.20;99.90
37594;DHT22;23441;50.856;6.076;2022-08-24T06:54:17;23.30;99.90
37594;DHT22;23441;50.856;6.076;2022-08-24T06:56:45;23.30;99.90
37594;DHT22;23441;50.856;6.076;2022-08-24T06:59:11;23.30;99.90
37594;DHT22;23441;50.856;6.076;2022-08-24T07:01:37;23.50;99.90
37594;DHT22;23441;50.856;6.076;2022-08-24T07:04:03;23.80;99.90
37594;DHT22;23441;50.856;6.076;2022-08-24T07:06:29;24.00;99.90
37594;DHT22;23441;50.856;6.076;2022-08-24T07:08:55;23.90;99.90
37594;DHT22;23441;50.856;6.076;2022-08-24T07:11:22;23.90;99.90
37594;DHT22;23441;50.856;6.076;2022-08-24T07:13:50;23.80;99.90
37594;DHT22;23441;50.856;6.076;2022-08-24T07:16:17;23.60;99.90
37594;DHT22;23441;50.856;6.076;2022-08-24T07:18:44;23.40;99.90
37594;DHT22;23441;50.856;6.076;2022-08-24T07:21:10;23.30;99.90
37594;DHT22;23441;50.856;6.076;2022-08-24T07:23:37;23.10;99.90
37594;DHT22;23441;50.856;6.076;2022-08-24T07:26:08;22.90;99.90
37594;DHT22;23441;50.856;6.076;2022-08-24T07:28:37;22.70;99.90
37594;DHT22;23441;50.856;6.076;2022-08-24T07:31:04;22.80;99.90
37594;DHT22;23441;50.856;6.076;2022-08-24T07:33:31;22.80;99.90
37594;DHT22;23441;50.856;6.076;2022-08-24T07:35:58;22.80;99.90
37594;DHT22;23441;50.856;6.076;2022-08-24T07:38:24;22.70;99.90
37594;DHT22;23441;50.856;6.076;2022-08-24T07:40:50;22.80;99.90
37594;DHT22;23441;50.856;6.076;2022-08-24T07:43:18;22.90;99.90
37594;DHT22;23441;50.856;6.076;2022-08-24T07:45:49;23.00;99.90
37594;DHT22;23441;50.856;6.076;2022-08-24T07:48:16;23.00;99.90
37594;DHT22;23441;50.856;6.076;2022-08-24T07:50:43;23.00;99.90
37594;DHT22;23441;50.856;6.076;2022-08-24T07:53:10;23.00;99.90
37594;DHT22;23441;50.856;6.076;2022-08-24T07:55:36;23.10;99.90
37594;DHT22;23441;50.856;6.076;2022-08-24T07:58:02;23.20;99.90
37594;DHT22;23441;50.856;6.076;2022-08-24T08:00:28;23.60;99.90
37594;DHT22;23441;50.856;6.076;2022-08-24T08:02:54;23.80;99.90
37594;DHT22;23441;50.856;6.076;2022-08-24T08:05:22;23.80;99.90
37594;DHT22;23441;50.856;6.076;2022-08-24T08:07:50;23.80;99.90
37594;DHT22;23441;50.856;6.076;2022-08-24T08:10:17;23.80;99.90
37594;DHT22;23441;50.856;6.076;2022-08-24T08:12:43;23.90;99.90
37594;DHT22;23441;50.856;6.076;2022-08-24T08:15:10;23.90;99.90
37594;DHT22;23441;50.856;6.076;2022-08-24T08:17:37;24.10;99.90
37594;DHT22;23441;50.856;6.076;2022-08-24T08:20:07;24.10;99.90
37594;DHT22;23441;50.856;6.076;2022-08-24T08:22:34;24.10;99.90
37594;DHT22;23441;50.856;6.076;2022-08-24T08:25:19;24.20;99.90
37594;DHT22;23441;50.856;6.076;2022-08-24T08:27:45;24.30;99.90
37594;DHT22;23441;50.856;6.076;2022-08-24T08:30:11;24.30;99.90
37594;DHT22;23441;50.856;6.076;2022-08-24T08:32:37;24.40;99.90
37594;DHT22;23441;50.856;6.076;2022-08-24T08:35:04;24.60;99.90
37594;DHT22;23441;50.856;6.076;2022-08-24T08:37:30;24.60;99.90
37594;DHT22;23441;50.856;6.076;2022-08-24T08:39:56;24.60;99.90
37594;DHT22;23441;50.856;6.076;2022-08-24T08:51:32;24.90;99.90
37594;DHT22;23441;50.856;6.076;2022-08-24T08:54:28;25.00;99.90
37594;DHT22;23441;50.856;6.076;2022-08-24T08:57:38;25.10;99.90
37594;DHT22;23441;50.856;6.076;2022-08-24T09:01:23;25.20;99.90
37594;DHT22;23441;50.856;6.076;2022-08-24T09:06:05;25.80;99.90
37594;DHT22;23441;50.856;6.076;2022-08-24T09:20:15;28.30;94.80
37594;DHT22;23441;50.856;6.076;2022-08-24T09:23:00;28.30;96.80
37594;DHT22;23441;50.856;6.076;2022-08-24T09:35:10;27.50;94.40
37594;DHT22;23441;50.856;6.076;2022-08-24T09:40:39;27.70;94.80
37594;DHT22;23441;50.856;6.076;2022-08-24T10:20:24;27.10;94.20
37594;DHT22;23441;50.856;6.076;2022-08-24T10:45:16;27.70;93.60
37594;DHT22;23441;50.856;6.076;2022-08-24T10:53:59;28.40;93.60
37594;DHT22;23441;50.856;6.076;2022-08-24T10:57:50;28.50;94.80
37594;DHT22;23441;50.856;6.076;2022-08-24T11:00:09;28.60;93.50
37594;DHT22;23441;50.856;6.076;2022-08-24T11:02:41;28.80;95.00
37594;DHT22;23441;50.856;6.076;2022-08-24T11:05:12;29.00;93.50
37594;DHT22;23441;50.856;6.076;2022-08-24T11:08:02;29.60;93.30
37594;DHT22;23441;50.856;6.076;2022-08-24T11:10:35;30.50;91.30
37594;DHT22;23441;50.856;6.076;2022-08-24T11:13:24;30.80;90.00
37594;DHT22;23441;50.856;6.076;2022-08-24T11:15:56;30.80;89.70
37594;DHT22;23441;50.856;6.076;2022-08-24T11:18:25;30.80;90.60
37594;DHT22;23441;50.856;6.076;2022-08-24T11:20:54;30.80;90.50
37594;DHT22;23441;50.856;6.076;2022-08-24T11:23:34;31.30;90.10
37594;DHT22;23441;50.856;6.076;2022-08-24T11:26:04;31.40;87.60
37594;DHT22;23441;50.856;6.076;2022-08-24T11:28:46;31.30;88.40
37594;DHT22;23441;50.856;6.076;2022-08-24T11:31:27;31.60;88.30
37594;DHT22;23441;50.856;6.076;2022-08-24T11:34:04;31.40;86.40
37594;DHT22;23441;50.856;6.076;2022-08-24T11:36:45;31.40;87.00
37594;DHT22;23441;50.856;6.076;2022-08-24T11:44:48;31.70;85.10
37594;DHT22;23441;50.856;6.076;2022-08-24T11:50:57;31.80;84.30
37594;DHT22;23441;50.856;6.076;2022-08-24T12:02:30;31.50;86.90
37594;DHT22;23441;50.856;6.076;2022-08-24T12:05:26;31.80;85.20
37594;DHT22;23441;50.856;6.076;2022-08-24T12:08:11;32.00;81.50
37594;DHT22;23441;50.856;6.076;2022-08-24T12:17:02;32.20;80.20
37594;DHT22;23441;50.856;6.076;2022-08-24T12:19:31;32.30;83.80
37594;DHT22;23441;50.856;6.076;2022-08-24T12:22:02;32.20;82.60
37594;DHT22;23441;50.856;6.076;2022-08-24T12:24:54;32.30;81.40
37594;DHT22;23441;50.856;6.076;2022-08-24T12:27:32;32.20;82.60
37594;DHT22;23441;50.856;6.076;2022-08-24T12:30:01;32.60;82.10
37594;DHT22;23441;50.856;6.076;2022-08-24T12:35:45;32.70;80.60
37594;DHT22;23441;50.856;6.076;2022-08-24T12:38:32;33.00;84.40
37594;DHT22;23441;50.856;6.076;2022-08-24T12:41:32;32.70;81.20
37594;DHT22;23441;50.856;6.076;2022-08-24T12:44:14;32.60;79.60
37594;DHT22;23441;50.856;6.076;2022-08-24T12:46:41;32.80;81.90
37594;DHT22;23441;50.856;6.076;2022-08-24T12:49:29;33.10;80.40
37594;DHT22;23441;50.856;6.076;2022-08-24T13:00:21;33.30;78.00
37594;DHT22;23441;50.856;6.076;2022-08-24T13:02:59;33.40;79.20
37594;DHT22;23441;50.856;6.076;2022-08-24T13:05:42;33.00;76.30
37594;DHT22;23441;50.856;6.076;2022-08-24T13:08:21;33.10;79.30
37594;DHT22;23441;50.856;6.076;2022-08-24T13:11:07;33.60;81.60
37594;DHT22;23441;50.856;6.076;2022-08-24T13:14:03;33.90;80.90
37594;DHT22;23441;50.856;6.076;2022-08-24T13:19:31;33.80;78.60
37594;DHT22;23441;50.856;6.076;2022-08-24T13:25:00;33.90;79.80
37594;DHT22;23441;50.856;6.076;2022-08-24T13:27:47;34.00;80.80
37594;DHT22;23441;50.856;6.076;2022-08-24T13:30:25;33.70;75.70
37594;DHT22;23441;50.856;6.076;2022-08-24T13:33:04;34.00;76.00
37594;DHT22;23441;50.856;6.076;2022-08-24T13:49:16;34.40;76.20
37594;DHT22;23441;50.856;6.076;2022-08-24T13:52:03;34.70;76.50
37594;DHT22;23441;50.856;6.076;2022-08-24T13:57:43;34.90;74.70
37594;DHT22;23441;50.856;6.076;2022-08-24T14:03:08;34.50;74.60
37594;DHT22;23441;50.856;6.076;2022-08-24T14:09:42;34.70;75.40
37594;DHT22;23441;50.856;6.076;2022-08-24T14:15:06;34.60;73.40
37594;DHT22;23441;50.856;6.076;2022-08-24T14:21:07;34.70;76.40
37594;DHT22;23441;50.856;6.076;2022-08-24T14:23:53;34.50;74.70
37594;DHT22;23441;50.856;6.076;2022-08-24T14:31:50;33.90;74.10
37594;DHT22;23441;50.856;6.076;2022-08-24T14:38:04;33.80;77.60
37594;DHT22;23441;50.856;6.076;2022-08-24T14:49:57;33.30;73.60
37594;DHT22;23441;50.856;6.076;2022-08-24T14:55:44;32.90;77.40
37594;DHT22;23441;50.856;6.076;2022-08-24T15:09:52;32.90;75.40
37594;DHT22;23441;50.856;6.076;2022-08-24T15:12:43;33.00;75.20
37594;DHT22;23441;50.856;6.076;2022-08-24T15:15:37;33.00;76.20
37594;DHT22;23441;50.856;6.076;2022-08-24T15:20:56;32.90;75.90
37594;DHT22;23441;50.856;6.076;2022-08-24T15:23:48;33.10;75.10
37594;DHT22;23441;50.856;6.076;2022-08-24T15:29:15;32.90;74.60
37594;DHT22;23441;50.856;6.076;2022-08-24T15:37:13;32.80;73.30
37594;DHT22;23441;50.856;6.076;2022-08-24T15:40:01;32.80;73.20
37594;DHT22;23441;50.856;6.076;2022-08-24T15:42:41;32.70;72.00
37594;DHT22;23441;50.856;6.076;2022-08-24T15:45:08;32.70;72.00
37594;DHT22;23441;50.856;6.076;2022-08-24T15:47:38;32.80;76.10
37594;DHT22;23441;50.856;6.076;2022-08-24T15:50:07;32.60;71.60
37594;DHT22;23441;50.856;6.076;2022-08-24T15:52:53;32.50;74.50
37594;DHT22;23441;50.856;6.076;2022-08-24T15:55:37;32.50;74.30
37594;DHT22;23441;50.856;6.076;2022-08-24T15:58:36;32.40;72.80
37594;DHT22;23441;50.856;6.076;2022-08-24T16:11:43;32.20;72.00
37594;DHT22;23441;50.856;6.076;2022-08-24T16:16:49;32.20;72.20
37594;DHT22;23441;50.856;6.076;2022-08-24T16:19:30;32.20;72.00
37594;DHT22;23441;50.856;6.076;2022-08-24T16:24:34;32.10;73.50
37594;DHT22;23441;50.856;6.076;2022-08-24T16:27:10;32.00;71.60
37594;DHT22;23441;50.856;6.076;2022-08-24T16:32:30;31.80;73.00
37594;DHT22;23441;50.856;6.076;2022-08-24T16:37:33;31.70;74.70
37594;DHT22;23441;50.856;6.076;2022-08-24T16:39:59;31.60;71.10
37594;DHT22;23441;50.856;6.076;2022-08-24T16:42:27;31.50;71.00
37594;DHT22;23441;50.856;6.076;2022-08-24T16:44:55;31.40;73.30
37594;DHT22;23441;50.856;6.076;2022-08-24T16:47:24;31.30;73.90
37594;DHT22;23441;50.856;6.076;2022-08-24T16:49:50;31.20;72.20
37594;DHT22;23441;50.856;6.076;2022-08-24T16:52:17;31.10;73.80
37594;DHT22;23441;50.856;6.076;2022-08-24T16:54:44;31.00;74.20
37594;DHT22;23441;50.856;6.076;2022-08-24T16:57:15;31.00;73.40
37594;DHT22;23441;50.856;6.076;2022-08-24T16:59:46;30.90;74.20
37594;DHT22;23441;50.856;6.076;2022-08-24T17:02:13;30.80;74.80
37594;DHT22;23441;50.856;6.076;2022-08-24T17:04:41;30.70;72.50
37594;DHT22;23441;50.856;6.076;2022-08-24T17:07:10;30.60;72.50
37594;DHT22;23441;50.856;6.076;2022-08-24T17:09:40;30.50;72.70
37594;DHT22;23441;50.856;6.076;2022-08-24T17:12:08;30.30;73.20
37594;DHT22;23441;50.856;6.076;2022-08-24T17:14:35;30.40;74.30
37594;DHT22;23441;50.856;6.076;2022-08-24T17:17:06;30.30;73.80
37594;DHT22;23441;50.856;6.076;2022-08-24T17:19:35;30.30;75.60
37594;DHT22;23441;50.856;6.076;2022-08-24T17:22:02;30.20;74.40
37594;DHT22;23441;50.856;6.076;2022-08-24T17:24:29;30.00;75.60
37594;DHT22;23441;50.856;6.076;2022-08-24T17:26:57;30.00;73.30
37594;DHT22;23441;50.856;6.076;2022-08-24T17:29:23;30.00;74.60
37594;DHT22;23441;50.856;6.076;2022-08-24T17:31:50;29.90;75.10
37594;DHT22;23441;50.856;6.076;2022-08-24T17:34:18;29.90;73.40
37594;DHT22;23441;50.856;6.076;2022-08-24T17:36:50;29.80;72.90
37594;DHT22;23441;50.856;6.076;2022-08-24T17:39:19;29.70;74.30
37594;DHT22;23441;50.856;6.076;2022-08-24T17:41:53;29.60;74.00
37594;DHT22;23441;50.856;6.076;2022-08-24T17:44:23;29.60;73.60
37594;DHT22;23441;50.856;6.076;2022-08-24T17:46:53;29.50;74.40
37594;DHT22;23441;50.856;6.076;2022-08-24T17:49:22;29.30;75.30
37594;DHT22;23441;50.856;6.076;2022-08-24T17:51:48;29.30;75.50
37594;DHT22;23441;50.856;6.076;2022-08-24T17:54:16;29.10;74.60
37594;DHT22;23441;50.856;6.076;2022-08-24T17:56:42;29.20;74.40
37594;DHT22;23441;50.856;6.076;2022-08-24T17:59:12;29.00;75.10
37594;DHT22;23441;50.856;6.076;2022-08-24T18:01:53;28.90;74.70
37594;DHT22;23441;50.856;6.076;2022-08-24T18:04:29;28.80;76.80
37594;DHT22;23441;50.856;6.076;2022-08-24T18:06:58;28.60;77.30
37594;DHT22;23441;50.856;6.076;2022-08-24T18:09:37;28.50;76.20
37594;DHT22;23441;50.856;6.076;2022-08-24T18:12:06;28.60;75.40
37594;DHT22;23441;50.856;6.076;2022-08-24T18:14:33;28.50;76.70
37594;DHT22;23441;50.856;6.076;2022-08-24T18:17:03;28.40;75.90
37594;DHT22;23441;50.856;6.076;2022-08-24T18:19:32;28.20;76.90
37594;DHT22;23441;50.856;6.076;2022-08-24T18:21:58;28.10;76.60
37594;DHT22;23441;50.856;6.076;2022-08-24T18:24:26;28.00;77.40
37594;DHT22;23441;50.856;6.076;2022-08-24T18:29:32;27.60;78.60
37594;DHT22;23441;50.856;6.076;2022-08-24T18:31:58;27.50;80.00
37594;DHT22;23441;50.856;6.076;2022-08-24T18:34:25;27.30;81.70
37594;DHT22;23441;50.856;6.076;2022-08-24T18:36:51;27.10;80.50
37594;DHT22;23441;50.856;6.076;2022-08-24T18:39:18;26.90;81.00
37594;DHT22;23441;50.856;6.076;2022-08-24T18:41:46;26.80;81.50
37594;DHT22;23441;50.856;6.076;2022-08-24T18:44:19;26.70;82.40
37594;DHT22;23441;50.856;6.076;2022-08-24T18:46:47;26.50;83.00
37594;DHT22;23441;50.856;6.076;2022-08-24T18:49:18;26.40;82.60
37594;DHT22;23441;50.856;6.076;2022-08-24T18:51:44;26.30;82.40
37594;DHT22;23441;50.856;6.076;2022-08-24T18:54:34;26.10;83.10
37594;DHT22;23441;50.856;6.076;2022-08-24T18:57:03;26.00;83.60
37594;DHT22;23441;50.856;6.076;2022-08-24T18:59:32;26.00;84.10
37594;DHT22;23441;50.856;6.076;2022-08-24T19:02:13;25.80;84.90
37594;DHT22;23441;50.856;6.076;2022-08-24T19:05:11;25.70;84.80
37594;DHT22;23441;50.856;6.076;2022-08-24T19:07:48;25.50;86.00
37594;DHT22;23441;50.856;6.076;2022-08-24T19:10:27;25.40;86.10
37594;DHT22;23441;50.856;6.076;2022-08-24T19:12:58;25.30;87.10
37594;DHT22;23441;50.856;6.076;2022-08-24T19:15:25;25.20;87.20
37594;DHT22;23441;50.856;6.076;2022-08-24T19:17:51;25.10;86.50
37594;DHT22;23441;50.856;6.076;2022-08-24T19:20:18;25.00;87.00
37594;DHT22;23441;50.856;6.076;2022-08-24T19:22:44;24.90;87.50
37594;DHT22;23441;50.856;6.076;2022-08-24T19:25:18;24.80;87.20
37594;DHT22;23441;50.856;6.076;2022-08-24T19:27:46;24.80;87.70
37594;DHT22;23441;50.856;6.076;2022-08-24T19:30:12;24.70;87.50
37594;DHT22;23441;50.856;6.076;2022-08-24T19:32:39;24.60;87.50
37594;DHT22;23441;50.856;6.076;2022-08-24T19:35:07;24.50;87.00
37594;DHT22;23441;50.856;6.076;2022-08-24T19:37:34;24.40;88.60
37594;DHT22;23441;50.856;6.076;2022-08-24T19:40:00;24.30;88.60
37594;DHT22;23441;50.856;6.076;2022-08-24T19:42:26;24.20;88.70
37594;DHT22;23441;50.856;6.076;2022-08-24T19:44:52;24.20;89.80
37594;DHT22;23441;50.856;6.076;2022-08-24T19:47:37;24.10;89.20
37594;DHT22;23441;50.856;6.076;2022-08-24T19:50:05;24.10;90.30
37594;DHT22;23441;50.856;6.076;2022-08-24T19:52:35;24.20;89.60
37594;DHT22;23441;50.856;6.076;2022-08-24T19:55:04;24.30;89.10
37594;DHT22;23441;50.856;6.076;2022-08-24T19:57:47;24.20;89.50
37594;DHT22;23441;50.856;6.076;2022-08-24T20:02:52;24.00;90.50